Thunder radar more information blitzortung!


Radar de pluja more information rain snow radar


Visita la nostra xarxa de llocs de meteo:

Template documentation
and downloads

And another site



No particular awareness of the weather is required.    There are no Weather-warnings

Pagina Historial Weather Underground text

Diari Resum Octubre 4, 2017 Unitats:  Mètric    Imperial   Tant
« Previous Dia
SegĂźent Dia »
Diari Setmana Mensual Anual Personalitzada
  Maxima: Minima: Media:
Temperatura: -17.8 °C -8.7 °C -6.7 °C
Punt de rosada: -17.8 °C -9.7 °C -8.7 °C
Humitat: Humidity % 66 % 80 %
Wind Speed: 0 km/h 0 km/h 5.6 km/h
RĂ fegues de vent: 0 km/h - -
Vent:- - East
Pression baro: 0 hPa 34601.5 hPa -
Precipitacions: 0 mm    
Historical Graphs
 
 
Dades de taula per Octubre 4, 2017
Temps Temperatura Punt de rosada Pression baro Vent Wind Speed RĂ fegues de vent Humitat Rainfall Rate (Hourly)
-17.8 °C -17.8 °C 0 hPa Calm     Humidity % 0 mm
00:00 -7.2 °C -8.9 °C 34635.4 hPa Calm     82 % 0 mm
00:05 -7.2 °C -9 °C 34635.4 hPa SW 6 km/h 6 km/h 82 % 0 mm
00:15 -8.3 °C -9.5 °C 34635.4 hPa Calm     87 % 0 mm
00:25 -8.3 °C -9.5 °C 34635.4 hPa Calm   5.1 km/h 87 % 0 mm
00:35 -8.3 °C -9.6 °C 34635.4 hPa Calm   2.6 km/h 87 % 0 mm
00:45 -8.4 °C -9.6 °C 34635.4 hPa SSW 2.6 km/h 5.1 km/h 87 % 0 mm
00:55 -8.4 °C -9.7 °C 34635.4 hPa SW 5.1 km/h 5.1 km/h 87 % 0 mm
01:05 -8.5 °C -9.7 °C 34635.4 hPa SW 2.6 km/h 5.1 km/h 87 % 0 mm
01:15 -8.5 °C -9.6 °C 34635.4 hPa SW 2.6 km/h 5.1 km/h 88 % 0 mm
01:25 -8.4 °C -9.6 °C 34635.4 hPa Calm     88 % 0 mm
01:35 -8.4 °C -9.6 °C 34635.4 hPa WSW 2.6 km/h 5.1 km/h 88 % 0 mm
01:45 -8.4 °C -9.6 °C 34635.4 hPa Calm   2.6 km/h 88 % 0 mm
01:55 -8.5 °C -9.6 °C 34635.4 hPa Calm   2.6 km/h 88 % 0 mm
02:05 -8.5 °C -9.5 °C 34635.4 hPa Calm     89 % 0 mm
02:15 -8.5 °C -9.5 °C 34635.4 hPa Calm     89 % 0 mm
02:25 -8.5 °C -9.5 °C 34635.4 hPa Calm     89 % 0 mm
02:35 -8.5 °C -9.5 °C 34635.4 hPa Calm     89 % 0 mm
02:45 -8.5 °C -9.5 °C 34669.3 hPa Calm     89 % 0 mm
02:55 -8.6 °C -9.6 °C 34635.4 hPa Calm     89 % 0 mm
03:05 -8.6 °C -9.6 °C 34635.4 hPa Calm     89 % 0 mm
03:15 -8.7 °C -9.7 °C 34635.4 hPa Calm     89 % 0 mm
03:25 -8.7 °C -9.6 °C 34669.3 hPa Calm     90 % 0 mm
03:35 -8.6 °C -9.6 °C 34669.3 hPa Calm     90 % 0 mm
03:45 -8.6 °C -9.5 °C 34669.3 hPa Calm     90 % 0 mm
03:55 -8.2 °C -9.1 °C 34669.3 hPa Calm     91 % 0 mm
04:05 -7.9 °C -8.8 °C 34669.3 hPa Calm     90 % 0 mm
04:15 -7.8 °C -8.9 °C 34669.3 hPa East 2.6 km/h 7.7 km/h 88 % 0 mm
04:25 -7.6 °C -8.8 °C 34669.3 hPa Calm   7.7 km/h 87 % 0 mm
04:35 -7.7 °C -9.1 °C 34669.3 hPa SSE 2.6 km/h 5.1 km/h 85 % 0 mm
04:45 -7.6 °C -9 °C 34669.3 hPa Calm   2.6 km/h 85 % 0 mm
04:55 -6.9 °C -8.4 °C 34669.3 hPa NW 2.6 km/h 5.1 km/h 84 % 0 mm
05:05 -6.7 °C -8.4 °C 34669.3 hPa NNE 2.6 km/h 5.1 km/h 82 % 0 mm
05:30 -6.8 °C -8.9 °C 34703.1 hPa ENE 2.6 km/h 5.1 km/h 79 % 0 mm
05:40 -6.7 °C -8.8 °C 34703.1 hPa ENE 2.6 km/h 5.1 km/h 79 % 0 mm
05:50 -6.7 °C -8.8 °C 34703.1 hPa East 2.6 km/h 7.7 km/h 78 % 0 mm
06:00 -6.6 °C -8.8 °C 34703.1 hPa ENE 2.6 km/h 5.1 km/h 78 % 0 mm
06:10 -6.5 °C -8.7 °C 34703.1 hPa NE 2.6 km/h 5.1 km/h 78 % 0 mm
06:20 -6.4 °C -8.6 °C 34740.4 hPa East 7.7 km/h 10.3 km/h 78 % 0 mm
06:30 -6.2 °C -8.4 °C 34703.1 hPa ENE 5.1 km/h 7.7 km/h 78 % 0 mm
06:40 -5.9 °C -8.2 °C 34703.1 hPa ENE 5.1 km/h 10.3 km/h 77 % 0 mm
06:50 -5.7 °C -8.1 °C 34703.1 hPa ENE 7.7 km/h 10.3 km/h 76 % 0 mm
07:00 -5.4 °C -7.8 °C 34740.4 hPa ENE 5.1 km/h 10.3 km/h 76 % 0 mm
07:10 -5.1 °C -7.9 °C 34740.4 hPa ESE 7.7 km/h 15.6 km/h 73 % 0 mm
07:20 -4.9 °C -7.7 °C 34703.1 hPa ESE 2.6 km/h 7.7 km/h 73 % 0 mm
07:30 -5.1 °C -7.9 °C 34703.1 hPa East 12.9 km/h 18.2 km/h 73 % 0 mm
07:40 -4.9 °C -7.8 °C 34703.1 hPa ENE 7.7 km/h 10.3 km/h 72 % 0 mm
07:50 -4.8 °C -7.9 °C 34703.1 hPa ENE 5.1 km/h 12.9 km/h 71 % 0 mm
08:00 -5.1 °C -8 °C 34740.4 hPa ENE 7.7 km/h 15.6 km/h 72 % 0 mm
08:10 -5.1 °C -8 °C 34740.4 hPa ENE 12.9 km/h 12.9 km/h 72 % 0 mm
08:20 -4.9 °C -7.9 °C 34703.1 hPa ENE 7.7 km/h 10.3 km/h 72 % 0 mm
08:30 -4.6 °C -7.7 °C 34703.1 hPa East 7.7 km/h 18.2 km/h 71 % 0 mm
08:40 -4.7 °C -7.9 °C 34703.1 hPa East 18.2 km/h 20.8 km/h 70 % 0 mm
08:50 -4.6 °C -7.8 °C 34703.1 hPa ESE 15.6 km/h 23.3 km/h 70 % 0 mm
09:00 -4.3 °C -7.7 °C 34703.1 hPa ESE 7.7 km/h 15.6 km/h 69 % 0 mm
09:10 -4.6 °C -7.9 °C 34703.1 hPa East 12.9 km/h 20.8 km/h 69 % 0 mm
09:20 -4.4 °C -7.9 °C 34669.3 hPa ESE 15.6 km/h 20.8 km/h 68 % 0 mm
09:30 -4.1 °C -7.7 °C 34669.3 hPa ESE 5.1 km/h 18.2 km/h 67 % 0 mm
09:40 -4.3 °C -8.1 °C 34669.3 hPa ESE 7.7 km/h 10.3 km/h 66 % 0 mm
09:50 -4.7 °C -8.2 °C 34669.3 hPa SE 18.2 km/h 23.3 km/h 68 % 0 mm
10:00 -4.9 °C -8.3 °C 34669.3 hPa ESE 18.2 km/h 28.5 km/h 69 % 0 mm
10:10 -5.1 °C -8.2 °C 34669.3 hPa ESE 18.2 km/h 25.9 km/h 71 % 0 mm
10:12 -6.9 °C -8.8 °C 34669.3 hPa NE 7.6 km/h 7.6 km/h 80 % 0 mm
10:13 -6.9 °C -8.8 °C 34669.3 hPa NE 9 km/h 9 km/h 80 % 0 mm
10:18 -6.9 °C -8.8 °C 34703.1 hPa ENE 6 km/h 6 km/h 80 % 0 mm
10:20 -4.9 °C -8 °C 34669.3 hPa East 12.9 km/h 23.3 km/h 71 % 0 mm
10:23 -6.8 °C -8.8 °C 34703.1 hPa ENE 4.2 km/h 5.6 km/h 80 % 0 mm
10:28 -6.8 °C -8.8 °C 34703.1 hPa ENE 4.2 km/h 5.6 km/h 80 % 0 mm
10:30 -5 °C -8.2 °C 34669.3 hPa ESE 20.8 km/h 20.8 km/h 70 % 0 mm
10:33 -6.8 °C -8.8 °C 34703.1 hPa ENE 4.2 km/h 5.6 km/h 80 % 0 mm
10:38 -6.8 °C -8.8 °C 34703.1 hPa ENE 4.2 km/h 5.6 km/h 80 % 0 mm
10:40 -5.2 °C -8.2 °C 34669.3 hPa East 12.9 km/h 15.6 km/h 72 % 0 mm
10:43 -6.8 °C -8.8 °C 34703.1 hPa ENE 4.2 km/h 5.6 km/h 80 % 0 mm
10:48 -6.8 °C -8.8 °C 34703.1 hPa ENE 4.2 km/h 5.6 km/h 80 % 0 mm
10:50 -5.2 °C -8.2 °C 34669.3 hPa East 18.2 km/h 23.3 km/h 72 % 0 mm
10:53 -6.8 °C -8.8 °C 34703.1 hPa ENE 4.2 km/h 5.6 km/h 80 % 0 mm
10:58 -6.8 °C -8.8 °C 34703.1 hPa ENE 4.2 km/h 5.6 km/h 80 % 0 mm
11:00 -5.2 °C -8.2 °C 34635.4 hPa ESE 7.7 km/h 20.8 km/h 72 % 0 mm
11:03 -6.8 °C -8.8 °C 34703.1 hPa ENE 4.2 km/h 5.6 km/h 80 % 0 mm
11:08 -6.8 °C -8.8 °C 34703.1 hPa ENE 4.2 km/h 5.6 km/h 80 % 0 mm
11:10 -5.3 °C -8.3 °C 34635.4 hPa ESE 15.6 km/h 25.9 km/h 72 % 0 mm
11:13 -6.8 °C -8.8 °C 34703.1 hPa ENE 4.2 km/h 5.6 km/h 80 % 0 mm
11:18 -6.8 °C -8.8 °C 34703.1 hPa ENE 4.2 km/h 5.6 km/h 80 % 0 mm
11:20 -5.3 °C -8.3 °C 34669.3 hPa ESE 7.7 km/h 18.2 km/h 72 % 0 mm
11:23 -6.8 °C -8.8 °C 34703.1 hPa ENE 4.2 km/h 5.6 km/h 80 % 0 mm
11:28 -6.8 °C -8.8 °C 34703.1 hPa ENE 4.2 km/h 5.6 km/h 80 % 0 mm
11:30 -5.5 °C -8.4 °C 34635.4 hPa ESE 15.6 km/h 23.3 km/h 72 % 0 mm
11:33 -6.8 °C -8.8 °C 34703.1 hPa ENE 4.2 km/h 5.6 km/h 80 % 0 mm
11:38 -6.8 °C -8.8 °C 34703.1 hPa ENE 4.2 km/h 5.6 km/h 80 % 0 mm
11:40 -5.5 °C -8.4 °C 34635.4 hPa ESE 18.2 km/h 20.8 km/h 72 % 0 mm
11:43 -6.8 °C -8.8 °C 34703.1 hPa ENE 4.2 km/h 5.6 km/h 80 % 0 mm
11:48 -6.8 °C -8.8 °C 34703.1 hPa ENE 4.2 km/h 5.6 km/h 80 % 0 mm
11:53 -6.8 °C -8.8 °C 34703.1 hPa ENE 4.2 km/h 5.6 km/h 80 % 0 mm
11:58 -6.8 °C -8.8 °C 34703.1 hPa ENE 4.2 km/h 5.6 km/h 80 % 0 mm
12:03 -6.8 °C -8.8 °C 34703.1 hPa ENE 4.2 km/h 5.6 km/h 80 % 0 mm
12:08 -6.8 °C -8.8 °C 34703.1 hPa ENE 4.2 km/h 5.6 km/h 80 % 0 mm
12:13 -6.8 °C -8.8 °C 34703.1 hPa ENE 4.2 km/h 5.6 km/h 80 % 0 mm
12:18 -6.8 °C -8.8 °C 34703.1 hPa ENE 4.2 km/h 5.6 km/h 80 % 0 mm
12:23 -6.8 °C -8.8 °C 34703.1 hPa ENE 4.2 km/h 5.6 km/h 80 % 0 mm
12:28 -6.8 °C -8.8 °C 34703.1 hPa ENE 4.2 km/h 5.6 km/h 80 % 0 mm
12:33 -6.8 °C -8.8 °C 34703.1 hPa ENE 4.2 km/h 5.6 km/h 80 % 0 mm
12:38 -6.8 °C -8.8 °C 34703.1 hPa ENE 4.2 km/h 5.6 km/h 80 % 0 mm
12:43 -6.8 °C -8.8 °C 34703.1 hPa ENE 4.2 km/h 5.6 km/h 80 % 0 mm
12:48 -6.8 °C -8.8 °C 34703.1 hPa ENE 4.2 km/h 5.6 km/h 80 % 0 mm
12:53 -6.8 °C -8.8 °C 34703.1 hPa ENE 4.2 km/h 5.6 km/h 80 % 0 mm
12:58 -6.8 °C -8.8 °C 34703.1 hPa ENE 4.2 km/h 5.6 km/h 80 % 0 mm
13:03 -6.8 °C -8.8 °C 34703.1 hPa ENE 4.2 km/h 5.6 km/h 80 % 0 mm
13:08 -6.8 °C -8.8 °C 34703.1 hPa ENE 4.2 km/h 5.6 km/h 80 % 0 mm
13:13 -6.8 °C -8.8 °C 34703.1 hPa ENE 4.2 km/h 5.6 km/h 80 % 0 mm
13:18 -6.8 °C -8.8 °C 34703.1 hPa ENE 4.2 km/h 5.6 km/h 80 % 0 mm
13:23 -6.8 °C -8.8 °C 34703.1 hPa ENE 4.2 km/h 5.6 km/h 80 % 0 mm
13:28 -6.8 °C -8.8 °C 34703.1 hPa ENE 4.2 km/h 5.6 km/h 80 % 0 mm
13:33 -6.8 °C -8.8 °C 34703.1 hPa ENE 4.2 km/h 5.6 km/h 80 % 0 mm
13:38 -6.8 °C -8.8 °C 34703.1 hPa ENE 4.2 km/h 5.6 km/h 80 % 0 mm
13:43 -6.8 °C -8.8 °C 34703.1 hPa ENE 4.2 km/h 5.6 km/h 80 % 0 mm
13:48 -6.8 °C -8.8 °C 34703.1 hPa ENE 4.2 km/h 5.6 km/h 80 % 0 mm
13:53 -6.8 °C -8.8 °C 34703.1 hPa ENE 4.2 km/h 5.6 km/h 80 % 0 mm
13:58 -6.8 °C -8.8 °C 34703.1 hPa ENE 4.2 km/h 5.6 km/h 80 % 0 mm
14:03 -6.8 °C -8.8 °C 34703.1 hPa ENE 4.2 km/h 5.6 km/h 80 % 0 mm
14:08 -6.8 °C -8.8 °C 34703.1 hPa ENE 4.2 km/h 5.6 km/h 80 % 0 mm
14:13 -6.8 °C -8.8 °C 34703.1 hPa ENE 4.2 km/h 5.6 km/h 80 % 0 mm
14:18 -6.8 °C -8.8 °C 34703.1 hPa ENE 4.2 km/h 5.6 km/h 80 % 0 mm
14:23 -6.8 °C -8.8 °C 34703.1 hPa ENE 4.2 km/h 5.6 km/h 80 % 0 mm
14:28 -6.8 °C -8.8 °C 34703.1 hPa ENE 4.2 km/h 5.6 km/h 80 % 0 mm
14:33 -6.8 °C -8.8 °C 34703.1 hPa ENE 4.2 km/h 5.6 km/h 80 % 0 mm
14:38 -6.8 °C -8.8 °C 34703.1 hPa ENE 4.2 km/h 5.6 km/h 80 % 0 mm
14:43 -6.8 °C -8.8 °C 34703.1 hPa ENE 4.2 km/h 5.6 km/h 80 % 0 mm
14:48 -6.8 °C -8.8 °C 34703.1 hPa ENE 4.2 km/h 5.6 km/h 80 % 0 mm
14:53 -6.8 °C -8.8 °C 34703.1 hPa ENE 4.2 km/h 5.6 km/h 80 % 0 mm
15:03 -6.8 °C -8.8 °C 34703.1 hPa ENE 4.2 km/h 5.6 km/h 80 % 0 mm
15:08 -6.8 °C -8.8 °C 34703.1 hPa ENE 4.2 km/h 5.6 km/h 80 % 0 mm
15:13 -6.8 °C -8.8 °C 34703.1 hPa ENE 4.2 km/h 5.6 km/h 80 % 0 mm
15:18 -6.8 °C -8.8 °C 34703.1 hPa ENE 4.2 km/h 5.6 km/h 80 % 0 mm
15:23 -6.8 °C -8.8 °C 34703.1 hPa ENE 4.2 km/h 5.6 km/h 80 % 0 mm
15:28 -6.8 °C -8.8 °C 34703.1 hPa ENE 4.2 km/h 5.6 km/h 80 % 0 mm
15:33 -6.8 °C -8.8 °C 34703.1 hPa ENE 4.2 km/h 5.6 km/h 80 % 0 mm
15:38 -6.8 °C -8.8 °C 34703.1 hPa ENE 4.2 km/h 5.6 km/h 80 % 0 mm
15:43 -6.8 °C -8.8 °C 34703.1 hPa ENE 4.2 km/h 5.6 km/h 80 % 0 mm
15:48 -6.8 °C -8.8 °C 34703.1 hPa ENE 4.2 km/h 5.6 km/h 80 % 0 mm
15:53 -6.8 °C -8.8 °C 34703.1 hPa ENE 4.2 km/h 5.6 km/h 80 % 0 mm
15:59 -6.8 °C -8.8 °C 34703.1 hPa ENE 4.2 km/h 5.6 km/h 80 % 0 mm
16:04 -6.8 °C -8.8 °C 34703.1 hPa ENE 4.2 km/h 5.6 km/h 80 % 0 mm
16:09 -6.8 °C -8.8 °C 34703.1 hPa ENE 4.2 km/h 5.6 km/h 80 % 0 mm
16:14 -6.8 °C -8.8 °C 34703.1 hPa ENE 4.2 km/h 5.6 km/h 80 % 0 mm
16:19 -6.8 °C -8.8 °C 34703.1 hPa ENE 4.2 km/h 5.6 km/h 80 % 0 mm
16:24 -6.8 °C -8.8 °C 34703.1 hPa ENE 4.2 km/h 5.6 km/h 80 % 0 mm
16:29 -6.8 °C -8.8 °C 34703.1 hPa ENE 4.2 km/h 5.6 km/h 80 % 0 mm
16:34 -6.8 °C -8.8 °C 34703.1 hPa ENE 4.2 km/h 5.6 km/h 80 % 0 mm
16:40 -5.5 °C -8.4 °C 34635.4 hPa ESE 16.6 km/h 17.4 km/h 72 % 0 mm
16:45 -5.4 °C -8.2 °C 34635.4 hPa NNE 15 km/h 15 km/h 73 % 0 mm
16:50 -5.4 °C -8.2 °C 34635.4 hPa ESE 23.8 km/h 23.8 km/h 73 % 0 mm
16:55 -5.4 °C -8.3 °C 34635.4 hPa ESE 26.9 km/h 26.9 km/h 73 % 0 mm
17:00 -5.5 °C -8.3 °C 34635.4 hPa ENE 23.8 km/h 23.8 km/h 73 % 0 mm
17:05 -5.4 °C -8.3 °C 34635.4 hPa ENE 23.8 km/h 23.8 km/h 73 % 0 mm
17:10 -5.4 °C -8.2 °C 34635.4 hPa ESE 15.6 km/h 15.6 km/h 73 % 0 mm
17:15 -5.4 °C -8.3 °C 34635.4 hPa East 15 km/h 15.6 km/h 73 % 0 mm
17:20 -5.4 °C -8.3 °C 34635.4 hPa East 20.9 km/h 20.9 km/h 73 % 0 mm
17:25 -5.5 °C -8.3 °C 34635.4 hPa East 16.6 km/h 16.6 km/h 73 % 0 mm
17:30 -5.6 °C -8.2 °C 34635.4 hPa ESE 20.9 km/h 20.9 km/h 74 % 0 mm
17:35 -5.6 °C -8.2 °C 34635.4 hPa East 15 km/h 15 km/h 74 % 0 mm
17:40 -5.6 °C -8.2 °C 34635.4 hPa East 15 km/h 15 km/h 74 % 0 mm
17:45 -5.6 °C -8.2 °C 34635.4 hPa North 14.5 km/h 14.5 km/h 74 % 0 mm
17:50 -5.7 °C -8.2 °C 34635.4 hPa ENE 15 km/h 15 km/h 75 % 0 mm
17:55 -5.7 °C -8.2 °C 34635.4 hPa SE 11.9 km/h 11.9 km/h 75 % 0 mm
18:00 -5.7 °C -8.2 °C 34635.4 hPa ENE 17.9 km/h 17.9 km/h 75 % 0 mm
18:05 -5.7 °C -8.2 °C 34635.4 hPa East 11.9 km/h 11.9 km/h 75 % 0 mm
18:10 -5.7 °C -8.2 °C 34635.4 hPa ENE 11.9 km/h 11.9 km/h 75 % 0 mm
18:15 -5.7 °C -8.2 °C 34669.3 hPa ESE 12.2 km/h 12.2 km/h 76 % 0 mm
18:20 -5.7 °C -8.2 °C 34669.3 hPa ENE 15 km/h 15 km/h 76 % 0 mm
18:25 -5.8 °C -8.2 °C 34669.3 hPa East 20.9 km/h 20.9 km/h 76 % 0 mm
18:30 -5.8 °C -8.2 °C 34669.3 hPa ENE 11.9 km/h 11.9 km/h 76 % 0 mm
18:35 -5.8 °C -8.1 °C 34669.3 hPa East 11.1 km/h 11.1 km/h 77 % 0 mm
18:40 -5.8 °C -8.2 °C 34669.3 hPa East 15 km/h 15 km/h 77 % 0 mm
18:45 -5.8 °C -8.2 °C 34635.4 hPa ENE 15 km/h 15 km/h 77 % 0 mm
18:50 -5.8 °C -8.2 °C 34635.4 hPa NNE 11.9 km/h 11.9 km/h 77 % 0 mm
18:55 -5.9 °C -8.1 °C 34635.4 hPa ESE 15 km/h 15 km/h 78 % 0 mm
19:00 -5.9 °C -8.1 °C 34635.4 hPa NE 15 km/h 15 km/h 78 % 0 mm
19:05 -5.9 °C -8.2 °C 34635.4 hPa ESE 15 km/h 15 km/h 78 % 0 mm
19:10 -5.9 °C -8.2 °C 34635.4 hPa SE 8.5 km/h 8.5 km/h 78 % 0 mm
19:15 -5.9 °C -8.2 °C 34669.3 hPa East 9 km/h 9 km/h 78 % 0 mm
19:20 -5.9 °C -8.1 °C 34669.3 hPa NE 9 km/h 9 km/h 79 % 0 mm
19:25 -5.9 °C -8.1 °C 34669.3 hPa ESE 9.3 km/h 9.3 km/h 79 % 0 mm
19:30 -5.9 °C -8.1 °C 34669.3 hPa NNE 3.1 km/h   79 % 0 mm
19:35 -6 °C -8.1 °C 34669.3 hPa SE 6 km/h 6 km/h 79 % 0 mm
19:40 -5.9 °C -8.1 °C 34669.3 hPa Calm     79 % 0 mm
19:50 -6 °C -8.2 °C 34669.3 hPa WSW 9.3 km/h 9.3 km/h 78 % 0 mm
19:55 -6 °C -8.2 °C 34669.3 hPa SW 3.1 km/h   78 % 0 mm
20:00 -6 °C -8.3 °C 34635.4 hPa SW 6 km/h 6 km/h 77 % 0 mm
20:05 -6.1 °C -8.4 °C 34635.4 hPa SW 8 km/h 8 km/h 77 % 0 mm
20:10 -6.1 °C -8.4 °C 34635.4 hPa SW 4.2 km/h   77 % 0 mm
20:15 -6.1 °C -8.4 °C 34669.3 hPa SW 4.2 km/h 4.2 km/h 77 % 0 mm
20:20 -6.2 °C -8.4 °C 34669.3 hPa SW 3.1 km/h   78 % 0 mm
20:25 -6.2 °C -8.4 °C 34669.3 hPa Calm     78 % 0 mm
20:30 -6.2 °C -8.4 °C 34669.3 hPa SW 6 km/h 6 km/h 78 % 0 mm
20:35 -6.3 °C -8.5 °C 34669.3 hPa Calm     78 % 0 mm
20:40 -6.3 °C -8.4 °C 34669.3 hPa Calm     79 % 0 mm
20:45 -6.4 °C -8.5 °C 34635.4 hPa Calm     79 % 0 mm
20:50 -6.4 °C -8.6 °C 34635.4 hPa Calm     79 % 0 mm
20:55 -6.4 °C -8.6 °C 34635.4 hPa Calm     79 % 0 mm
21:00 -6.5 °C -8.6 °C 34669.3 hPa Calm     79 % 0 mm
21:05 -6.6 °C -8.6 °C 34669.3 hPa Calm     80 % 0 mm
21:08 -6.6 °C -8.6 °C 34669.3 hPa Calm     80 % 0 mm
21:10 -7.1 °C -8.3 °C 34669.3 hPa Calm     87 % 0 mm
21:13 -6.6 °C -8.6 °C 34669.3 hPa Calm     80 % 0 mm
21:18 -6.6 °C -8.6 °C 34669.3 hPa Calm     80 % 0 mm
21:20 -7.1 °C -8.3 °C 34635.4 hPa Calm     87 % 0 mm
21:23 -6.6 °C -8.4 °C 34669.3 hPa Calm     81 % 0 mm
21:28 -6.4 °C -8.3 °C 34669.3 hPa ESE 3.1 km/h   81 % 0 mm
21:30 -7.2 °C -8.4 °C 34635.4 hPa Calm     87 % 0 mm
21:38 -6.5 °C -8.4 °C 34669.3 hPa Calm     81 % 0 mm
21:40 -7.2 °C -8.4 °C 34635.4 hPa SW 5.1 km/h 5.1 km/h 87 % 0 mm
21:43 -6.5 °C -8.4 °C 34669.3 hPa East 6.8 km/h 6.8 km/h 81 % 0 mm
21:48 -6.6 °C -8.4 °C 34669.3 hPa ENE 3.1 km/h 3.7 km/h 81 % 0 mm
21:50 -7.2 °C -8.4 °C 34635.4 hPa Calm   5.1 km/h 87 % 0 mm
21:53 -6.6 °C -8.5 °C 34669.3 hPa East 6 km/h 6 km/h 81 % 0 mm
21:54 -6.6 °C -8.5 °C 34669.3 hPa East 6 km/h 6 km/h 81 % 0 mm
21:59 -6.6 °C -8.5 °C 34669.3 hPa East 6 km/h 6 km/h 81 % 0 mm
22:00 -7.3 °C -8.4 °C 34635.4 hPa WSW 2.6 km/h 7.7 km/h 88 % 0 mm
22:04 -6.7 °C -8.4 °C 34669.3 hPa South 3.1 km/h   82 % 0 mm
22:10 -7.4 °C -8.6 °C 34635.4 hPa WSW 2.6 km/h 7.7 km/h 88 % 0 mm
22:14 -6.8 °C -8.6 °C 34669.3 hPa Calm     82 % 0 mm
22:19 -6.8 °C -8.6 °C 34669.3 hPa SE 3.1 km/h   82 % 0 mm
22:20 -7.6 °C -8.7 °C 34635.4 hPa WSW 2.6 km/h 5.1 km/h 88 % 0 mm
22:24 -6.8 °C -8.4 °C 34669.3 hPa Calm     83 % 0 mm
22:30 -7.7 °C -8.8 °C 34601.5 hPa WSW 2.6 km/h 5.1 km/h 88 % 0 mm
22:34 -6.9 °C -8.6 °C 34703.1 hPa Calm     83 % 0 mm
22:39 -6.9 °C -8.6 °C 34703.1 hPa Calm     83 % 0 mm
22:40 -7.7 °C -8.8 °C 34601.5 hPa WSW 5.1 km/h 7.7 km/h 88 % 0 mm
22:44 -6.9 °C -8.6 °C 34703.1 hPa Calm     83 % 0 mm
22:49 -7 °C -8.6 °C 34703.1 hPa Calm     84 % 0 mm
22:50 -7.8 °C -8.9 °C 34601.5 hPa WSW 2.6 km/h 7.7 km/h 88 % 0 mm
22:54 -7 °C -8.6 °C 34703.1 hPa Calm     84 % 0 mm
22:59 -7.1 °C -8.6 °C 34703.1 hPa Calm     84 % 0 mm
23:04 -7 °C -8.6 °C 34703.1 hPa East 3.1 km/h   84 % 0 mm
23:09 -7 °C -8.4 °C 34703.1 hPa Calm     85 % 0 mm
23:10 -8 °C -9.1 °C 34601.5 hPa WSW 2.6 km/h 7.7 km/h 88 % 0 mm
23:14 -7 °C -8.4 °C 34703.1 hPa Calm     85 % 0 mm
23:19 -7 °C -8.4 °C 34669.3 hPa East 3.1 km/h   85 % 0 mm
23:20 -8 °C -9.2 °C 34601.5 hPa WSW 2.6 km/h 5.1 km/h 87 % 0 mm
23:24 -7.1 °C -8.5 °C 34669.3 hPa ENE 4.2 km/h   85 % 0 mm
23:29 -7.1 °C -8.5 °C 34669.3 hPa Calm     85 % 0 mm
23:30 -8.1 °C -9.3 °C 34601.5 hPa Calm   2.6 km/h 87 % 0 mm
23:34 -7.1 °C -8.4 °C 34669.3 hPa Calm     86 % 0 mm
23:39 -7 °C -8.3 °C 34669.3 hPa Calm     86 % 0 mm
23:40 -8.1 °C -9.3 °C 34601.5 hPa Calm   5.1 km/h 87 % 0 mm
23:44 -7 °C -8.3 °C 34669.3 hPa Calm     86 % 0 mm
23:49 -7 °C -8.3 °C 34669.3 hPa Calm     86 % 0 mm
23:50 -8.2 °C -9.4 °C 34601.5 hPa Calm     87 % 0 mm
23:54 -7 °C -8.3 °C 34669.3 hPa Calm     86 % 0 mm
23:59 -7 °C -8.3 °C 34703.1 hPa Calm     86 % 0 mm
Meteo Sesrovires
Elogis d' Weather Underground - 1.5 mb

Guio original per  Jim McMurry - jmcmurry@mwt.net Adaptat per a la plantilla per  Wim van der Kuil - Leuven-Template.eu

Trobareu la nostra informacio del temps tambe a:

Weather Underground

AWEKAS